Time;durP1;ratioP1;P1;durP2;ratioP2;P2;SDS_P1;SDS_P2;PMS_P1;PMS_P2;Temp;Humidity;BMP_temperature;BMP_pressure;BME280_temperature;BME280_humidity;BME280_pressure;Samples;Min_cycle;Max_cycle;Signal;HPM_P1;HPM_P2
2022/03/27 00:01:37;;;;;;;;;;;;;;;5.37;69.66;101558.34;1768735;80;20273;-60
2022/03/27 00:04:05;;;;;;;;;;;;;;;5.37;69.56;101553.56;1767722;79;20197;-60
2022/03/27 00:06:32;;;;;;;;;;;;;;;5.33;70.41;101556.63;1826858;79;20172;-61
2022/03/27 00:09:00;;;;;;;;;;;;;;;5.34;70.58;101564.02;1783584;80;20409;-59
2022/03/27 00:11:28;;;;;;;;;;;;;;;5.37;70.89;101540.51;1826901;78;20108;-67
2022/03/27 00:14:00;;;;;;;;;;;;;;;5.37;71.07;101549.20;1783468;80;20178;-62
2022/03/27 00:16:28;;;;;;;;;;;;;;;5.36;71.04;101536.14;1827019;79;20390;-58
2022/03/27 00:18:56;;;;;;;;;;;;;;;5.38;71.18;101536.55;1826964;78;20151;-58
2022/03/27 00:21:24;;;;;;;;;;;;;;;5.39;71.25;101523.08;1826886;79;20120;-60
2022/03/27 00:23:52;;;;;;;;;;;;;;;5.43;70.93;101540.91;1783476;80;20139;-58
2022/03/27 00:26:21;;;;;;;;;;;;;;;5.46;70.78;101498.67;1827008;78;20131;-58
2022/03/27 00:28:49;;;;;;;;;;;;;;;5.52;70.56;101538.25;1793992;80;20376;-58
2022/03/27 00:31:17;;;;;;;;;;;;;;;5.52;70.38;101529.97;1804106;80;20153;-60
2022/03/27 00:33:46;;;;;;;;;;;;;;;5.53;70.39;101530.41;1840510;78;20111;-59
2022/03/27 00:36:15;;;;;;;;;;;;;;;5.52;70.58;101520.83;1841038;78;20128;-60
2022/03/27 00:38:44;;;;;;;;;;;;;;;5.53;70.53;101521.69;1844509;78;20432;-59
2022/03/27 00:41:12;;;;;;;;;;;;;;;5.53;70.41;101526.49;1844469;77;20357;-58
2022/03/27 00:43:40;;;;;;;;;;;;;;;5.54;70.41;101519.52;1844549;78;20193;-57
2022/03/27 00:46:08;;;;;;;;;;;;;;;5.54;70.54;101502.09;1845938;77;20127;-58
2022/03/27 00:48:36;;;;;;;;;;;;;;;5.57;70.79;101511.64;1853256;77;20123;-58
2022/03/27 00:51:04;;;;;;;;;;;;;;;5.57;70.85;101475.06;1853257;77;20154;-58
2022/03/27 00:53:32;;;;;;;;;;;;;;;5.58;70.85;101476.81;1854256;77;20123;-57
2022/03/27 00:56:00;;;;;;;;;;;;;;;5.60;70.93;101454.16;1862267;77;20121;-58
2022/03/27 00:58:27;;;;;;;;;;;;;;;5.63;70.74;101464.59;1839703;78;20146;-61
2022/03/27 01:01:12;;;;;;;;;;;;;;;5.65;70.87;101444.99;1854435;77;20123;-59
2022/03/27 01:03:40;;;;;;;;;;;;;;;5.66;70.83;101450.18;1851376;77;20105;-61
2022/03/27 01:06:12;;;;;;;;;;;;;;;5.67;70.87;101424.50;1859713;76;20127;-61
2022/03/27 01:11:26;;;;;;;;;;;;;;;5.69;71.02;101441.47;1849417;78;20159;-59
2022/03/27 01:13:56;;;;;;;;;;;;;;;5.71;71.14;101427.95;1849424;78;20147;-60
2022/03/27 01:16:31;;;;;;;;;;;;;;;5.70;71.28;101420.56;1838469;78;20172;-59
2022/03/27 01:19:00;;;;;;;;;;;;;;;5.71;71.39;101426.20;1854419;76;20230;-59
2022/03/27 01:21:28;;;;;;;;;;;;;;;5.69;71.36;101418.81;1855662;77;20125;-59
2022/03/27 01:23:56;;;;;;;;;;;;;;;5.68;71.58;101393.58;1828020;79;20124;-58
2022/03/27 01:26:24;;;;;;;;;;;;;;;5.71;71.97;101407.91;1822938;79;20109;-60
2022/03/27 01:28:52;;;;;;;;;;;;;;;5.73;72.25;101393.08;1863062;77;20121;-59
2022/03/27 01:31:20;;;;;;;;;;;;;;;5.77;72.13;101363.45;1875432;77;20169;-61
2022/03/27 01:33:47;;;;;;;;;;;;;;;5.78;71.78;101403.51;1875488;77;20121;-60
2022/03/27 01:36:22;;;;;;;;;;;;;;;5.83;71.51;101355.99;1860706;77;20119;-60
2022/03/27 01:38:51;;;;;;;;;;;;;;;5.84;71.36;101349.01;1838784;77;20110;-63
2022/03/27 01:41:19;;;;;;;;;;;;;;;5.87;70.92;101358.14;1858611;77;20114;-63
2022/03/27 01:43:47;;;;;;;;;;;;;;;5.89;71.21;101369.44;1858474;77;20110;-61
2022/03/27 01:46:15;;;;;;;;;;;;;;;5.89;71.16;101389.90;1858574;77;20152;-61
2022/03/27 01:48:43;;;;;;;;;;;;;;;5.90;71.17;101385.53;1858617;77;20223;-62
2022/03/27 01:51:11;;;;;;;;;;;;;;;5.88;71.49;101399.06;1848072;77;20260;-62
2022/03/27 01:53:40;;;;;;;;;;;;;;;5.87;71.15;101394.28;1854230;77;20239;-63
2022/03/27 01:56:09;;;;;;;;;;;;;;;5.89;71.12;101404.73;1853815;77;20513;-63
2022/03/27 01:58:40;;;;;;;;;;;;;;;5.91;71.21;101408.19;1852559;77;20497;-63
2022/03/27 02:01:08;;;;;;;;;;;;;;;5.93;71.09;101408.59;1857600;77;20271;-57
2022/03/27 02:03:36;;;;;;;;;;;;;;;5.96;71.11;101378.99;1853375;77;20127;-58
2022/03/27 02:06:07;;;;;;;;;;;;;;;5.97;70.89;101409.46;1847412;76;20155;-57
2022/03/27 02:08:35;;;;;;;;;;;;;;;5.99;70.40;101392.02;1838038;78;20227;-59
2022/03/27 02:11:03;;;;;;;;;;;;;;;6.05;70.37;101372.36;1838016;78;20242;-58
2022/03/27 02:13:31;;;;;;;;;;;;;;;6.09;70.23;101383.21;1838135;78;20111;-59
2022/03/27 02:15:59;;;;;;;;;;;;;;;6.08;70.12;101388.00;1838035;78;20116;-59
2022/03/27 02:18:27;;;;;;;;;;;;;;;6.09;69.99;101353.59;1838068;78;20112;-59
2022/03/27 02:20:55;;;;;;;;;;;;;;;6.09;69.77;101383.21;1836176;78;20154;-62
2022/03/27 02:23:23;;;;;;;;;;;;;;;6.10;69.30;101345.70;1821130;79;20152;-61
2022/03/27 02:25:52;;;;;;;;;;;;;;;6.11;69.10;101323.92;1821197;79;20207;-59
2022/03/27 02:28:20;;;;;;;;;;;;;;;6.14;68.84;101364.42;1816500;79;20122;-59
2022/03/27 02:30:48;;;;;;;;;;;;;;;6.17;68.61;101351.30;1808928;79;20122;-59
2022/03/27 02:33:16;;;;;;;;;;;;;;;6.22;68.33;101356.94;1821215;79;20129;-59
2022/03/27 02:35:45;;;;;;;;;;;;;;;6.24;68.21;101340.78;1821164;79;20167;-60
2022/03/27 02:38:13;;;;;;;;;;;;;;;6.25;68.52;101356.88;1821147;79;20239;-59
2022/03/27 02:40:42;;;;;;;;;;;;;;;6.25;68.67;101332.04;1821177;79;20121;-59
2022/03/27 02:43:10;;;;;;;;;;;;;;;6.25;68.43;101288.89;1821321;78;20151;-59
2022/03/27 02:45:38;;;;;;;;;;;;;;;6.27;68.66;101315.88;1821107;79;20125;-59
2022/03/27 02:48:06;;;;;;;;;;;;;;;6.30;68.37;101307.56;1821208;79;20125;-58
2022/03/27 02:50:37;;;;;;;;;;;;;;;6.33;68.21;101323.68;1821141;79;20215;-59
2022/03/27 02:53:04;;;;;;;;;;;;;;;6.33;68.51;101298.83;1830048;78;20177;-58
2022/03/27 02:55:32;;;;;;;;;;;;;;;6.31;68.83;101199.91;1809091;78;20126;-59
2022/03/27 02:58:00;;;;;;;;;;;;;;;6.34;68.29;101286.16;1826401;79;20128;-59
2022/03/27 03:00:28;;;;;;;;;;;;;;;6.37;68.43;101299.20;1826393;79;20191;-59
2022/03/27 03:02:56;;;;;;;;;;;;;;;6.38;68.67;101304.84;1826140;78;20112;-59
2022/03/27 03:05:24;;;;;;;;;;;;;;;6.36;68.99;101280.05;1826374;79;20231;-58
2022/03/27 03:07:52;;;;;;;;;;;;;;;6.36;69.31;101292.23;1826363;78;20117;-59
2022/03/27 03:10:20;;;;;;;;;;;;;;;6.34;69.49;101322.78;1826360;79;20175;-58
2022/03/27 03:12:48;;;;;;;;;;;;;;;6.34;69.71;101317.12;1821768;79;20129;-59
2022/03/27 03:15:16;;;;;;;;;;;;;;;6.36;69.48;101255.61;1821231;79;20121;-59
2022/03/27 03:17:44;;;;;;;;;;;;;;;6.39;69.54;101262.12;1821107;79;20161;-59
2022/03/27 03:20:12;;;;;;;;;;;;;;;6.37;69.79;101276.52;1821192;79;20151;-59
2022/03/27 03:22:40;;;;;;;;;;;;;;;6.37;70.02;101288.30;1824047;77;20381;-60
2022/03/27 03:25:09;;;;;;;;;;;;;;;6.40;69.96;101232.48;1799885;79;20105;-59
2022/03/27 03:27:37;;;;;;;;;;;;;;;6.42;69.19;101250.32;1781545;81;20116;-60
2022/03/27 03:30:06;;;;;;;;;;;;;;;6.46;69.18;101240.68;1806297;79;20118;-59
2022/03/27 03:32:35;;;;;;;;;;;;;;;6.50;68.59;101237.98;1806380;79;20368;-61
2022/03/27 03:35:03;;;;;;;;;;;;;;;6.54;68.93;101281.98;1806409;79;20110;-59
2022/03/27 03:37:31;;;;;;;;;;;;;;;6.56;69.23;101275.82;1806491;79;20137;-59
2022/03/27 03:39:59;;;;;;;;;;;;;;;6.54;69.35;101248.82;1806361;79;20121;-60
2022/03/27 03:42:27;;;;;;;;;;;;;;;6.56;69.74;101258.81;1806339;79;20130;-60
2022/03/27 03:44:55;;;;;;;;;;;;;;;6.56;69.59;101250.97;1806344;79;20223;-58
2022/03/27 03:47:23;;;;;;;;;;;;;;;6.57;69.27;101159.83;1806342;79;20177;-58
2022/03/27 03:49:51;;;;;;;;;;;;;;;6.61;68.95;101208.20;1806353;79;20153;-58
2022/03/27 03:52:19;;;;;;;;;;;;;;;6.62;68.63;101239.58;1806364;79;20118;-58
2022/03/27 03:54:46;;;;;;;;;;;;;;;6.64;68.11;101262.66;1806280;79;20126;-59
2022/03/27 03:57:14;;;;;;;;;;;;;;;6.69;68.31;101309.69;1807126;79;20169;-58
2022/03/27 03:59:42;;;;;;;;;;;;;;;6.68;68.63;101298.36;1777218;81;20128;-60
2022/03/27 04:02:13;;;;;;;;;;;;;;;6.72;68.81;101287.41;1758503;82;20145;-60
2022/03/27 04:04:39;;;;;;;;;;;;;;;6.74;68.97;101273.85;1777069;81;20127;-61
2022/03/27 04:07:07;;;;;;;;;;;;;;;6.79;69.29;101292.09;1789279;78;20141;-61
2022/03/27 04:09:35;;;;;;;;;;;;;;;6.81;69.30;101285.96;1858665;77;20173;-60
2022/03/27 04:12:03;;;;;;;;;;;;;;;6.85;68.98;101235.28;1858659;77;20126;-60
2022/03/27 04:14:34;;;;;;;;;;;;;;;6.87;68.91;101296.33;1805237;80;20176;-60
2022/03/27 04:17:00;;;;;;;;;;;;;;;6.90;68.79;101315.93;1849382;78;20143;-59
2022/03/27 04:19:28;;;;;;;;;;;;;;;6.92;68.98;101302.38;1849586;78;20123;-59
2022/03/27 04:21:55;;;;;;;;;;;;;;;6.93;68.85;101348.63;1849383;78;20154;-58
2022/03/27 04:24:23;;;;;;;;;;;;;;;6.98;68.60;101299.25;1849381;78;20123;-59
2022/03/27 04:26:51;;;;;;;;;;;;;;;6.99;68.38;101320.59;1849421;78;20148;-57
2022/03/27 04:29:19;;;;;;;;;;;;;;;7.00;68.49;101340.67;1834040;78;20113;-59
2022/03/27 04:31:47;;;;;;;;;;;;;;;7.02;68.55;101334.51;1829799;78;20124;-58
2022/03/27 04:34:15;;;;;;;;;;;;;;;7.04;68.52;101343.66;1829835;78;20163;-58
2022/03/27 04:36:43;;;;;;;;;;;;;;;7.07;68.38;101375.05;1829769;78;20121;-58
2022/03/27 04:39:11;;;;;;;;;;;;;;;7.07;68.29;101341.86;1829743;78;20594;-58
2022/03/27 04:41:38;;;;;;;;;;;;;;;7.09;68.36;101348.39;1829843;78;20156;-58
2022/03/27 04:44:07;;;;;;;;;;;;;;;7.13;68.30;101296.38;1829904;78;20394;-59
2022/03/27 04:46:35;;;;;;;;;;;;;;;7.14;68.16;101323.00;1829801;78;20198;-58
2022/03/27 04:49:03;;;;;;;;;;;;;;;7.17;67.75;101286.72;1829801;78;20108;-58
2022/03/27 04:51:30;;;;;;;;;;;;;;;7.19;67.61;101329.01;1829700;78;20124;-60
2022/03/27 04:53:58;;;;;;;;;;;;;;;7.23;67.14;101310.19;1835843;77;20123;-60
2022/03/27 04:56:26;;;;;;;;;;;;;;;7.26;67.08;101318.86;1852359;77;20159;-60
2022/03/27 04:58:54;;;;;;;;;;;;;;;7.30;66.80;101338.91;1852392;77;20144;-60
2022/03/27 05:01:22;;;;;;;;;;;;;;;7.31;66.67;101310.48;1852415;77;20183;-59
2022/03/27 05:03:49;;;;;;;;;;;;;;;7.34;66.45;101311.76;1852314;77;20119;-61
2022/03/27 05:06:18;;;;;;;;;;;;;;;7.38;66.60;101340.51;1852368;77;20115;-60
2022/03/27 05:08:46;;;;;;;;;;;;;;;7.42;66.61;101341.76;1852416;77;20409;-59
2022/03/27 05:11:13;;;;;;;;;;;;;;;7.43;66.66;101352.67;1852335;77;20200;-60
2022/03/27 05:13:41;;;;;;;;;;;;;;;7.42;66.49;101338.28;1852377;77;20115;-61
2022/03/27 05:16:09;;;;;;;;;;;;;;;7.40;66.45;101303.39;1852389;77;20154;-59
2022/03/27 05:18:36;;;;;;;;;;;;;;;7.37;66.53;101317.84;1852317;77;20178;-56
2022/03/27 05:21:04;;;;;;;;;;;;;;;7.35;66.72;101266.31;1852353;77;20123;-56
2022/03/27 05:23:32;;;;;;;;;;;;;;;7.35;66.95;101287.27;1852332;77;20152;-58
2022/03/27 05:26:00;;;;;;;;;;;;;;;7.34;67.05;101317.00;1852382;77;20123;-58
2022/03/27 05:28:28;;;;;;;;;;;;;;;7.34;67.59;101290.80;1837337;77;20134;-58
2022/03/27 05:30:56;;;;;;;;;;;;;;;7.31;67.59;101279.51;1818076;79;20129;-62
2022/03/27 05:33:24;;;;;;;;;;;;;;;7.29;67.60;101307.03;1818047;78;20119;-61
2022/03/27 05:35:53;;;;;;;;;;;;;;;7.27;68.04;101257.73;1818141;79;20122;-60
2022/03/27 05:38:20;;;;;;;;;;;;;;;7.24;68.62;101337.67;1818089;79;20109;-59
2022/03/27 05:40:48;;;;;;;;;;;;;;;7.21;69.49;101325.95;1818115;79;20126;-61
2022/03/27 05:43:16;;;;;;;;;;;;;;;7.18;69.71;101335.16;1818062;79;20161;-60
2022/03/27 05:45:44;;;;;;;;;;;;;;;7.14;70.19;101341.34;1817942;79;20469;-62
2022/03/27 05:48:12;;;;;;;;;;;;;;;7.10;70.67;101351.41;1818055;79;20155;-61
2022/03/27 05:50:40;;;;;;;;;;;;;;;7.05;70.84;101327.08;1818024;79;20117;-60
2022/03/27 05:53:08;;;;;;;;;;;;;;;7.01;70.87;101343.69;1818059;79;20156;-61
2022/03/27 05:55:36;;;;;;;;;;;;;;;7.00;71.07;101321.03;1839048;78;20175;-61
2022/03/27 05:58:03;;;;;;;;;;;;;;;6.95;71.13;101273.95;1840250;78;20111;-60
2022/03/27 06:00:31;;;;;;;;;;;;;;;6.92;71.50;101325.94;1840376;78;20150;-61
2022/03/27 06:02:59;;;;;;;;;;;;;;;6.87;71.97;101315.97;1840342;78;20167;-61
2022/03/27 06:05:27;;;;;;;;;;;;;;;6.85;72.38;101297.25;1840482;78;20236;-61
2022/03/27 06:07:55;;;;;;;;;;;;;;;6.85;72.72;101268.01;1840277;77;20150;-60
2022/03/27 06:10:25;;;;;;;;;;;;;;;6.85;72.92;101277.17;1840342;78;20111;-60
2022/03/27 06:12:53;;;;;;;;;;;;;;;6.84;72.59;101314.72;1839727;78;20186;-59
2022/03/27 06:15:21;;;;;;;;;;;;;;;6.81;72.95;101287.27;1840366;78;20119;-59
2022/03/27 06:17:50;;;;;;;;;;;;;;;6.80;72.95;101327.41;1840339;78;20154;-58
2022/03/27 06:20:19;;;;;;;;;;;;;;;6.85;72.74;101308.58;1840389;78;20150;-58
2022/03/27 06:22:47;;;;;;;;;;;;;;;6.91;72.43;101305.86;1840519;78;20338;-58
2022/03/27 06:25:16;;;;;;;;;;;;;;;6.92;72.41;101324.63;1840247;78;20131;-58
2022/03/27 06:27:44;;;;;;;;;;;;;;;6.96;72.61;101334.16;1837559;78;20354;-59
2022/03/27 06:30:16;;;;;;;;;;;;;;;6.98;72.68;101352.47;1818303;79;20414;-57
2022/03/27 06:32:44;;;;;;;;;;;;;;;6.96;72.61;101321.06;1818021;79;20401;-58
2022/03/27 06:35:13;;;;;;;;;;;;;;;6.95;72.64;101295.79;1818043;79;20151;-57
2022/03/27 06:37:41;;;;;;;;;;;;;;;6.93;72.56;101318.52;1817952;79;20164;-59
2022/03/27 06:40:10;;;;;;;;;;;;;;;6.96;72.63;101328.92;1818027;79;20122;-59
2022/03/27 06:42:38;;;;;;;;;;;;;;;6.96;72.30;101322.38;1818081;79;20375;-59
2022/03/27 06:45:07;;;;;;;;;;;;;;;7.00;72.59;101326.27;1818007;78;20180;-59
2022/03/27 06:47:34;;;;;;;;;;;;;;;7.02;72.64;101296.55;1817971;79;20121;-60
2022/03/27 06:50:04;;;;;;;;;;;;;;;7.06;72.59;101353.20;1817968;79;20156;-58
2022/03/27 06:52:33;;;;;;;;;;;;;;;7.07;72.55;101314.82;1818011;79;20430;-58
2022/03/27 06:55:01;;;;;;;;;;;;;;;7.07;72.83;101327.45;1833707;78;20378;-58
2022/03/27 06:57:29;;;;;;;;;;;;;;;7.08;72.49;101234.05;1840311;78;20115;-57
2022/03/27 07:05:28;;;;;;;;;;;;;;;7.08;73.49;101274.63;1840321;78;20162;-59
2022/03/27 07:07:56;;;;;;;;;;;;;;;7.12;73.65;101275.88;1840314;78;20167;-59
2022/03/27 07:10:24;;;;;;;;;;;;;;;7.21;73.93;101296.25;1840231;77;20127;-57
2022/03/27 07:12:52;;;;;;;;;;;;;;;7.23;73.56;101257.37;1840338;78;20158;-59
2022/03/27 07:15:25;;;;;;;;;;;;;;;7.24;73.51;101286.59;1840158;78;20119;-60
2022/03/27 07:17:52;;;;;;;;;;;;;;;7.22;73.68;101226.83;1840060;78;20677;-60
2022/03/27 07:20:21;;;;;;;;;;;;;;;7.21;74.01;101273.56;1840329;78;20225;-59
2022/03/27 07:22:49;;;;;;;;;;;;;;;7.24;73.81;101272.64;1840436;78;20382;-60
2022/03/27 07:25:16;;;;;;;;;;;;;;;7.24;73.72;101267.40;1840374;78;20158;-60
2022/03/27 07:27:44;;;;;;;;;;;;;;;7.26;73.87;101315.38;1837194;78;20154;-60
2022/03/27 07:30:12;;;;;;;;;;;;;;;7.28;73.66;101271.23;1818060;79;20121;-58
2022/03/27 07:32:40;;;;;;;;;;;;;;;7.30;73.53;101281.27;1818027;79;20152;-59
2022/03/27 07:35:12;;;;;;;;;;;;;;;7.32;73.66;101274.25;1817956;79;20130;-59
2022/03/27 07:37:41;;;;;;;;;;;;;;;7.34;73.76;101285.56;1818121;79;20363;-58
2022/03/27 07:40:10;;;;;;;;;;;;;;;7.31;73.74;101282.98;1817953;79;20363;-60
2022/03/27 07:42:39;;;;;;;;;;;;;;;7.30;73.80;101278.66;1818136;79;20406;-59
2022/03/27 07:45:08;;;;;;;;;;;;;;;7.29;74.28;101262.50;1818030;79;20157;-59
2022/03/27 07:47:37;;;;;;;;;;;;;;;7.29;74.05;101269.50;1818096;79;20157;-58
2022/03/27 07:50:06;;;;;;;;;;;;;;;7.33;74.35;101262.86;1817978;79;20165;-59
2022/03/27 07:52:35;;;;;;;;;;;;;;;7.37;74.28;101253.19;1809261;79;20411;-58
2022/03/27 07:55:04;;;;;;;;;;;;;;;7.35;74.02;101237.50;1839192;77;20123;-58
2022/03/27 07:57:32;;;;;;;;;;;;;;;7.32;74.23;101240.19;1852387;77;20149;-57
2022/03/27 08:00:01;;;;;;;;;;;;;;;7.28;74.09;101251.59;1852425;77;20152;-59
2022/03/27 08:02:29;;;;;;;;;;;;;;;7.24;74.35;101247.30;1818004;77;20414;-57
2022/03/27 08:04:57;;;;;;;;;;;;;;;7.20;74.63;101231.23;1806958;79;20207;-56
2022/03/27 08:07:25;;;;;;;;;;;;;;;7.16;74.95;101263.61;1806830;79;20121;-54
2022/03/27 08:09:53;;;;;;;;;;;;;;;7.11;75.50;101222.22;1814006;78;20121;-54
2022/03/27 08:12:21;;;;;;;;;;;;;;;7.10;75.48;101227.02;1830113;78;20155;-54
2022/03/27 08:14:49;;;;;;;;;;;;;;;7.06;76.15;101201.78;1830244;78;20117;-54
2022/03/27 08:17:17;;;;;;;;;;;;;;;7.05;76.40;101246.75;1830088;78;20168;-52
2022/03/27 08:19:47;;;;;;;;;;;;;;;6.99;76.81;101238.13;1830036;78;20117;-53
2022/03/27 08:22:14;;;;;;;;;;;;;;;6.95;76.98;101240.81;1810530;78;20105;-51
2022/03/27 08:24:42;;;;;;;;;;;;;;;6.92;77.58;101234.30;1800204;80;20155;-54
2022/03/27 08:27:10;;;;;;;;;;;;;;;6.90;77.94;101248.32;1800178;80;20153;-52
2022/03/27 08:29:39;;;;;;;;;;;;;;;6.86;78.10;101241.38;1827737;78;20133;-56
2022/03/27 08:32:08;;;;;;;;;;;;;;;6.85;78.76;101256.68;1829695;78;20121;-58
2022/03/27 08:34:37;;;;;;;;;;;;;;;6.83;78.71;101244.92;1830090;78;20492;-58
2022/03/27 08:37:06;;;;;;;;;;;;;;;6.84;78.63;101242.73;1830202;78;20351;-60
2022/03/27 08:39:34;;;;;;;;;;;;;;;6.82;78.64;101236.63;1830060;78;20417;-60
2022/03/27 08:42:02;;;;;;;;;;;;;;;6.83;79.26;101246.23;1813606;78;20121;-57
2022/03/27 08:44:31;;;;;;;;;;;;;;;6.80;79.20;101225.78;1800171;79;20125;-56
2022/03/27 08:46:59;;;;;;;;;;;;;;;6.76;79.55;101248.06;1800041;80;20181;-58
2022/03/27 08:49:29;;;;;;;;;;;;;;;6.74;79.65;101234.14;1800124;79;20216;-58
2022/03/27 08:52:04;;;;;;;;;;;;;;;6.76;79.87;101245.90;1819035;78;20224;-56
2022/03/27 08:54:33;;;;;;;;;;;;;;;6.73;79.88;101226.30;1851555;77;20148;-59
2022/03/27 08:57:03;;;;;;;;;;;;;;;6.72;79.94;101191.88;1866015;77;20149;-56
2022/03/27 08:59:31;;;;;;;;;;;;;;;6.76;80.21;101237.59;1867523;77;20223;-58
2022/03/27 09:02:00;;;;;;;;;;;;;;;6.78;79.99;101221.02;1847678;77;20235;-59
2022/03/27 10:33:18;;;;;;;7.15;3.10;;;;;;;6.57;73.99;101306.80;1940344;72;28381;-56
2022/03/27 10:35:58;;;;;;;10.30;3.47;;;;;;;6.43;74.29;101307.42;1911499;74;21529;-57
2022/03/27 10:38:54;;;;;;;6.12;2.42;;;;;;;6.33;74.45;101312.77;1892192;74;21152;-56
2022/03/27 10:41:38;;;;;;;6.65;3.10;;;;;;;6.26;74.55;101316.78;1910355;75;21059;-56
2022/03/27 10:44:16;;;;;;;9.40;2.22;;;;;;;6.16;74.72;101331.28;1885627;75;21011;-55
2022/03/27 10:46:47;;;;;;;7.95;2.35;;;;;;;6.13;74.80;101321.30;1900413;74;21016;-54
2022/03/27 10:49:16;;;;;;;7.17;2.37;;;;;;;6.08;74.56;101323.08;1899223;74;21031;-55
2022/03/27 10:51:47;;;;;;;8.70;2.92;;;;;;;6.06;74.56;101327.47;1899799;75;20992;-53
2022/03/27 10:54:21;;;;;;;5.33;1.85;;;;;;;5.99;74.48;101341.03;1911614;74;21007;-58
2022/03/27 10:56:54;;;;;;;6.40;2.62;;;;;;;5.94;74.34;101333.67;1902618;75;21023;-57
2022/03/27 10:59:24;;;;;;;;;;;;;;;5.86;74.37;101341.56;1905451;75;21015;-56
2022/03/27 11:01:55;;;;;;;6.03;2.52;;;;;;;5.84;74.37;101345.95;1894408;75;20509;-56
2022/03/27 11:04:38;;;;;;;3.87;1.57;;;;;;;5.74;74.35;101355.63;1918842;75;21023;-58
2022/03/27 11:07:22;;;;;;;2.58;1.65;;;;;;;5.68;74.08;101347.86;1919452;75;21565;-56
2022/03/27 11:09:50;;;;;;;9.33;2.07;;;;;;;5.67;74.01;101346.56;1919708;75;21104;-56
2022/03/27 11:12:29;;;;;;;5.70;2.00;;;;;;;5.70;74.06;101348.70;1898268;75;21512;-56
2022/03/27 11:15:07;;;;;;;5.65;1.70;;;;;;;5.77;73.95;101350.38;1886739;76;21054;-56
2022/03/27 11:17:41;;;;;;;3.20;1.40;;;;;;;5.81;73.85;101357.76;1919427;75;21032;-57
2022/03/27 11:20:25;;;;;;;6.22;1.40;;;;;;;5.89;73.75;101365.52;1919420;75;21466;-54
2022/03/27 11:22:56;;;;;;;3.75;1.82;;;;;;;5.95;73.57;101369.37;1900989;75;21105;-55
2022/03/27 11:25:29;;;;;;;5.50;1.42;;;;;;;6.01;73.32;101377.17;1907211;75;21035;-52
2022/03/27 11:28:12;;;;;;;4.00;1.27;;;;;;;6.04;73.16;101384.14;1898742;75;21019;-55
2022/03/27 11:30:56;;;;;;;3.58;0.98;;;;;;;6.05;72.83;101386.75;1887447;75;21059;-56
2022/03/27 11:33:30;;;;;;;;;;;;;;;6.13;72.69;101391.44;1901732;74;21132;-57
2022/03/27 11:36:15;;;;;;;2.47;1.00;;;;;;;6.26;72.24;101390.02;1902020;75;20113;-56
2022/03/27 11:39:03;;;;;;;2.12;1.12;;;;;;;6.27;71.87;101399.16;1896568;75;21132;-57
2022/03/27 11:41:47;;;;;;;3.62;1.10;;;;;;;6.30;71.44;101401.72;1905164;75;21079;-55
2022/03/27 11:47:19;;;;;;;0.72;0.50;;;;;;;6.49;71.17;101403.71;1914482;74;21121;-58
2022/03/27 11:49:47;;;;;;;1.15;0.78;;;;;;;6.64;70.32;101405.70;1925592;74;21112;-56
2022/03/27 11:52:19;;;;;;;3.58;0.88;;;;;;;6.73;70.10;101409.52;1921977;74;21107;-55
2022/03/27 11:54:48;;;;;;;3.80;1.25;;;;;;;6.80;69.46;101416.86;1906069;74;21019;-53
2022/03/27 11:57:17;;;;;;;6.10;0.82;;;;;;;6.93;69.55;101420.63;1891976;75;21164;-54
2022/03/27 11:59:51;;;;;;;2.77;0.80;;;;;;;7.01;69.24;101417.89;1899872;74;21442;-55
2022/03/27 12:02:26;;;;;;;2.12;0.98;;;;;;;7.12;69.06;101415.14;1906749;74;21035;-54
2022/03/27 12:04:55;;;;;;;5.78;1.47;;;;;;;7.32;68.98;101419.64;1898498;75;21008;-52
2022/03/27 12:07:26;;;;;;;4.05;1.70;;;;;;;7.50;68.44;101428.95;1910578;75;21107;-53
2022/03/27 12:10:03;;;;;;;4.87;1.27;;;;;;;7.61;68.41;101418.31;1900068;75;21027;-56
2022/03/27 12:12:32;;;;;;;6.37;1.10;;;;;;;7.67;68.13;101419.55;1918764;75;21066;-55
2022/03/27 12:15:08;;;;;;;3.35;1.12;;;;;;;7.70;67.73;101411.61;1890326;75;21055;-55
2022/03/27 12:17:36;;;;;;;1.83;1.00;;;;;;;7.71;67.15;101414.67;1884981;76;21067;-56
2022/03/27 12:20:08;;;;;;;5.55;1.50;;;;;;;7.67;66.61;101411.69;1885610;76;21468;-55
2022/03/27 12:22:39;;;;;;;4.17;0.95;;;;;;;7.61;66.39;101406.52;1886058;75;21067;-55
2022/03/27 12:25:11;;;;;;;1.85;0.80;;;;;;;7.60;66.21;101404.80;1885753;75;21031;-55
2022/03/27 12:30:38;;;;;;;2.10;0.85;;;;;;;7.56;66.37;101407.03;1918677;75;21126;-54
2022/03/27 12:33:07;;;;;;;3.27;0.90;;;;;;;7.48;66.30;101401.06;1918693;74;21047;-54
2022/03/27 12:35:36;;;;;;;2.95;1.00;;;;;;;7.39;66.00;101406.44;1918771;75;21497;-55
2022/03/27 12:38:05;;;;;;;9.80;3.22;;;;;;;7.28;66.06;101426.24;1918739;75;21579;-57
2022/03/27 12:40:47;;;;;;;7.12;1.25;;;;;;;7.23;66.13;101423.70;1917732;75;21477;-58
2022/03/27 12:43:16;;;;;;;4.58;1.02;;;;;;;7.28;66.13;101423.17;1893734;75;21109;-59
2022/03/27 12:45:45;;;;;;;3.40;1.02;;;;;;;7.34;66.15;101410.42;1886147;76;21101;-58
2022/03/27 12:48:19;;;;;;;1.52;0.93;;;;;;;7.37;65.99;101420.02;1886132;76;21063;-58
2022/03/27 12:50:51;;;;;;;3.08;0.80;;;;;;;7.37;65.85;101427.42;1886121;76;21037;-58
2022/03/27 12:53:23;;;;;;;3.33;1.12;;;;;;;7.39;65.79;101423.47;1886058;76;21031;-59
2022/03/27 12:56:05;;;;;;;3.25;1.10;;;;;;;7.34;65.74;101406.07;1886059;76;21130;-60
2022/03/27 12:58:44;;;;;;;2.30;1.10;;;;;;;7.32;65.61;101420.95;1886214;76;21043;-58
2022/03/27 13:01:21;;;;;;;4.65;0.80;;;;;;;7.31;65.65;101423.14;1886025;76;21164;-57
2022/03/27 13:04:10;;;;;;;4.78;0.90;;;;;;;7.34;65.64;101415.24;1886038;76;21144;-58
2022/03/27 13:06:44;;;;;;;6.20;0.75;;;;;;;7.36;65.53;101423.09;1886178;76;21036;-58
2022/03/27 13:09:16;;;;;;;3.60;1.47;;;;;;;7.39;65.46;101431.33;1886122;76;21517;-58
2022/03/27 13:11:46;;;;;;;2.95;1.00;;;;;;;7.41;65.39;101430.41;1883166;76;21479;-58
2022/03/27 13:14:15;;;;;;;5.30;2.00;;;;;;;7.60;65.21;101431.02;1886130;76;21040;-58
2022/03/27 13:16:49;;;;;;;4.33;1.20;;;;;;;7.90;64.98;101423.53;1885992;76;21097;-58
2022/03/27 13:19:20;;;;;;;5.20;1.72;;;;;;;7.99;64.72;101410.27;1886079;76;21036;-58
2022/03/27 13:21:57;;;;;;;4.53;1.70;;;;;;;8.04;64.44;101413.68;1886051;76;21032;-58
2022/03/27 13:24:34;;;;;;;5.35;1.75;;;;;;;8.11;64.28;101410.06;1886067;76;21485;-57
2022/03/27 13:27:08;;;;;;;5.25;1.50;;;;;;;8.20;63.89;101406.83;1926988;74;21139;-57
2022/03/27 13:29:37;;;;;;;6.50;1.00;;;;;;;8.40;63.56;101400.76;1954488;73;21026;-58
2022/03/27 13:32:11;;;;;;;1.35;1.00;;;;;;;8.43;63.38;101399.43;1954473;73;21429;-58
2022/03/27 13:34:37;;;;;;;3.02;1.52;;;;;;;8.36;62.94;101412.22;1954092;73;21042;-58
2022/03/27 13:37:06;;;;;;;5.50;1.50;;;;;;;8.30;62.86;101420.22;1954706;73;21469;-58
2022/03/27 13:39:35;;;;;;;3.37;1.00;;;;;;;8.30;62.84;101428.94;1954365;73;21046;-58
2022/03/27 13:44:51;;;;;;;6.08;1.98;;;;;;;8.48;62.52;101419.89;1954462;73;21108;-58
2022/03/27 13:47:21;;;;;;;14.50;2.17;;;;;;;8.46;62.17;101411.16;1954666;73;21559;-58
2022/03/27 13:49:50;;;;;;;6.25;1.30;;;;;;;8.41;61.99;101408.17;1954483;73;21030;-59
2022/03/27 13:52:19;;;;;;;5.08;1.20;;;;;;;8.32;61.82;101415.80;1954472;73;21019;-58
2022/03/27 13:54:48;;;;;;;3.92;0.90;;;;;;;8.27;61.85;101431.61;1954483;73;21058;-58
2022/03/27 13:57:17;;;;;;;1.95;0.90;;;;;;;8.31;61.86;101431.11;1954443;73;21035;-58
2022/03/27 13:59:45;;;;;;;2.95;1.07;;;;;;;8.35;61.76;101440.64;1954399;73;21489;-58
2022/03/27 14:02:15;;;;;;;4.17;1.10;;;;;;;8.29;61.41;101432.44;1954374;73;21492;-58
2022/03/27 14:04:43;;;;;;;5.25;1.00;;;;;;;8.23;61.31;101425.16;1954469;73;21495;-58
2022/03/27 14:07:12;;;;;;;5.58;1.20;;;;;;;8.17;61.20;101434.42;1954712;73;21120;-58
2022/03/27 14:09:41;;;;;;;4.10;0.80;;;;;;;8.10;61.01;101442.41;1954447;73;21030;-58
2022/03/27 14:12:10;;;;;;;3.27;0.88;;;;;;;8.10;61.16;101442.41;1954465;73;21573;-58
2022/03/27 14:14:39;;;;;;;2.15;1.10;;;;;;;8.11;61.09;101440.64;1954437;73;21680;-58
2022/03/27 14:17:09;;;;;;;5.55;0.90;;;;;;;8.07;60.94;101436.35;1954374;73;21042;-58
2022/03/27 14:19:38;;;;;;;3.35;1.00;;;;;;;8.02;60.77;101432.52;1954539;73;21096;-58
2022/03/27 14:22:07;;;;;;;2.85;1.10;;;;;;;7.98;60.64;101434.75;1954550;73;21026;-58